createdAt,value
2023-04-23T00:01:10.655Z,99.90
2023-04-23T00:04:09.390Z,99.90
2023-04-23T00:07:06.859Z,99.90
2023-04-23T00:10:05.662Z,99.90
2023-04-23T00:13:02.864Z,99.90
2023-04-23T00:16:00.218Z,99.90
2023-04-23T00:18:57.084Z,99.90
2023-04-23T00:21:53.888Z,99.90
2023-04-23T00:24:50.754Z,99.90
2023-04-23T00:27:47.988Z,99.90
2023-04-23T00:30:44.782Z,99.90
2023-04-23T00:33:41.674Z,99.90
2023-04-23T00:36:38.609Z,99.90
2023-04-23T00:39:37.563Z,99.90
2023-04-23T00:42:35.384Z,99.90
2023-04-23T00:45:32.292Z,99.90
2023-04-23T00:48:29.541Z,99.90
2023-04-23T00:51:26.422Z,99.90
2023-04-23T00:54:23.689Z,99.90
2023-04-23T00:57:22.033Z,99.90
2023-04-23T01:00:20.341Z,99.90
2023-04-23T01:03:18.487Z,99.90
2023-04-23T01:06:17.100Z,99.90
2023-04-23T01:09:15.350Z,99.90
2023-04-23T01:12:13.532Z,99.90
2023-04-23T01:15:10.921Z,99.90
2023-04-23T01:18:08.055Z,99.90
2023-04-23T01:21:05.501Z,99.90
2023-04-23T01:24:04.632Z,99.90
2023-04-23T01:27:02.409Z,99.90
2023-04-23T01:29:59.457Z,99.90
2023-04-23T01:32:57.593Z,99.90
2023-04-23T01:35:56.572Z,99.90
2023-04-23T01:38:53.875Z,99.90
2023-04-23T01:41:51.029Z,99.90
2023-04-23T01:44:47.889Z,99.90
2023-04-23T01:47:44.890Z,99.90
2023-04-23T01:50:42.469Z,99.90
2023-04-23T01:53:39.282Z,99.90
2023-04-23T01:56:36.398Z,99.90
2023-04-23T01:59:33.268Z,99.90
2023-04-23T02:02:30.190Z,99.90
2023-04-23T02:05:29.667Z,99.90
2023-04-23T02:08:28.119Z,99.90
2023-04-23T02:11:24.930Z,99.90
2023-04-23T02:14:21.789Z,99.90
2023-04-23T02:17:21.598Z,99.90
2023-04-23T02:20:19.909Z,99.90
2023-04-23T02:23:16.858Z,99.90
2023-04-23T02:26:13.647Z,99.90
2023-04-23T02:29:10.590Z,99.90
2023-04-23T02:32:07.384Z,99.90
2023-04-23T02:35:06.590Z,99.90
2023-04-23T02:38:03.449Z,99.90
2023-04-23T02:41:00.399Z,99.90
2023-04-23T02:43:57.282Z,99.90
2023-04-23T02:46:54.250Z,99.90
2023-04-23T02:49:51.119Z,99.90
2023-04-23T02:52:48.897Z,99.90
2023-04-23T02:55:45.708Z,99.90
2023-04-23T02:58:42.556Z,99.90
2023-04-23T03:01:39.349Z,99.90
2023-04-23T03:04:36.180Z,99.90
2023-04-23T03:07:33.080Z,99.90
2023-04-23T03:10:30.024Z,99.90
2023-04-23T03:13:27.272Z,99.90
2023-04-23T03:16:24.139Z,99.90
2023-04-23T03:19:20.994Z,99.90
2023-04-23T03:22:17.804Z,99.90
2023-04-23T03:25:14.614Z,99.90
2023-04-23T03:28:11.441Z,99.90
2023-04-23T03:31:08.678Z,99.90
2023-04-23T03:34:05.594Z,99.90
2023-04-23T03:37:02.447Z,99.90
2023-04-23T03:39:59.302Z,99.90
2023-04-23T03:42:57.870Z,99.90
2023-04-23T03:45:54.712Z,99.90
2023-04-23T03:48:51.604Z,99.90
2023-04-23T03:51:48.454Z,99.90
2023-04-23T03:54:45.338Z,99.90
2023-04-23T03:57:42.196Z,99.90
2023-04-23T04:00:39.000Z,99.90
2023-04-23T04:03:36.578Z,99.90
2023-04-23T04:06:33.701Z,99.90
2023-04-23T04:09:30.601Z,99.90
2023-04-23T04:12:27.432Z,99.90
2023-04-23T04:15:24.284Z,99.90
2023-04-23T04:18:21.141Z,99.90
2023-04-23T04:21:19.030Z,99.90
2023-04-23T04:24:15.906Z,99.90
2023-04-23T04:27:12.966Z,99.90
2023-04-23T04:30:10.864Z,99.90
2023-04-23T04:33:08.979Z,99.90
2023-04-23T04:36:06.283Z,99.90
2023-04-23T04:39:03.532Z,99.90
2023-04-23T04:42:02.819Z,99.90
2023-04-23T04:44:59.712Z,99.90
2023-04-23T04:47:56.615Z,99.90
2023-04-23T04:50:53.774Z,99.90
2023-04-23T04:53:50.724Z,99.90
2023-04-23T04:56:47.608Z,99.90
2023-04-23T04:59:44.702Z,99.90
2023-04-23T05:02:41.603Z,99.90
2023-04-23T05:05:38.556Z,99.90
2023-04-23T05:08:35.516Z,99.90
2023-04-23T05:11:32.392Z,99.90
2023-04-23T05:14:29.820Z,99.90
2023-04-23T05:17:26.806Z,99.90
2023-04-23T05:20:23.719Z,99.90
2023-04-23T05:23:20.638Z,99.90
2023-04-23T05:26:18.192Z,99.90
2023-04-23T05:29:19.216Z,99.90
2023-04-23T05:32:16.298Z,99.90
2023-04-23T05:35:13.240Z,99.90
2023-04-23T05:38:10.461Z,99.90
2023-04-23T05:41:07.307Z,99.90
2023-04-23T05:44:04.625Z,99.90
2023-04-23T05:47:01.880Z,99.90
2023-04-23T05:49:58.750Z,99.90
2023-04-23T05:52:55.590Z,99.90
2023-04-23T05:55:52.386Z,99.90
2023-04-23T05:58:49.178Z,99.90
2023-04-23T06:01:47.750Z,99.90
2023-04-23T06:04:44.893Z,99.90
2023-04-23T06:07:42.716Z,99.90
2023-04-23T06:10:39.597Z,99.90
2023-04-23T06:13:42.199Z,99.90
2023-04-23T06:16:40.569Z,99.90
2023-04-23T06:19:37.367Z,99.90
2023-04-23T06:22:34.401Z,99.90
2023-04-23T06:25:31.248Z,99.90
2023-04-23T06:28:28.029Z,99.90
2023-04-23T06:31:25.031Z,99.90
2023-04-23T06:34:21.945Z,99.90
2023-04-23T06:37:18.807Z,99.90
2023-04-23T06:40:15.946Z,99.90
2023-04-23T06:43:14.503Z,99.90
2023-04-23T06:46:11.437Z,99.90
2023-04-23T06:49:08.231Z,99.90
2023-04-23T06:52:05.079Z,99.90
2023-04-23T06:55:01.992Z,99.90
2023-04-23T06:57:58.887Z,99.90
2023-04-23T07:00:55.762Z,99.90
2023-04-23T07:03:54.530Z,99.90
2023-04-23T07:06:51.599Z,99.90
2023-04-23T07:09:48.437Z,99.90
2023-04-23T07:12:45.565Z,99.90
2023-04-23T07:15:43.054Z,99.90
2023-04-23T07:18:39.889Z,99.90
2023-04-23T07:21:36.729Z,99.90
2023-04-23T07:24:33.557Z,99.90
2023-04-23T07:27:30.369Z,99.90
2023-04-23T07:30:28.147Z,99.90
2023-04-23T07:33:25.485Z,99.90
2023-04-23T07:36:22.838Z,99.90
2023-04-23T07:39:19.701Z,99.90
2023-04-23T07:42:16.545Z,99.90
2023-04-23T07:45:13.377Z,99.90
2023-04-23T07:48:10.189Z,99.90
2023-04-23T07:51:08.044Z,99.90
2023-04-23T07:54:05.169Z,99.90
2023-04-23T07:57:02.971Z,99.90
2023-04-23T07:59:59.841Z,99.90
2023-04-23T08:02:56.931Z,99.90
2023-04-23T08:05:53.861Z,99.90
2023-04-23T08:08:50.738Z,99.90
2023-04-23T08:11:48.242Z,99.90
2023-04-23T08:14:47.285Z,99.90
2023-04-23T08:17:44.135Z,99.90
2023-04-23T08:20:41.331Z,99.90
2023-04-23T08:23:38.428Z,99.90
2023-04-23T08:26:35.456Z,99.90
2023-04-23T08:29:32.658Z,99.90
2023-04-23T08:32:29.820Z,99.90
2023-04-23T08:35:26.668Z,99.90
2023-04-23T08:38:23.630Z,99.90
2023-04-23T08:41:24.438Z,99.90
2023-04-23T08:44:26.300Z,99.90
2023-04-23T08:47:25.493Z,99.90
2023-04-23T08:50:23.285Z,99.90
2023-04-23T08:53:25.200Z,99.90
2023-04-23T08:56:23.099Z,99.90
2023-04-23T08:59:22.988Z,99.90
2023-04-23T09:02:20.047Z,99.90
2023-04-23T09:05:17.364Z,99.90
2023-04-23T09:08:14.157Z,99.90
2023-04-23T09:11:11.221Z,99.90
2023-04-23T09:14:08.887Z,99.90
2023-04-23T09:17:05.805Z,99.90
2023-04-23T09:20:03.914Z,99.90
2023-04-23T09:23:00.856Z,99.90
2023-04-23T09:25:58.003Z,99.90
2023-04-23T09:28:54.850Z,99.90
2023-04-23T09:32:02.479Z,99.90
2023-04-23T09:34:59.411Z,99.90
2023-04-23T09:37:56.299Z,99.90
2023-04-23T09:40:53.197Z,99.90
2023-04-23T09:43:50.005Z,99.90
2023-04-23T09:46:46.872Z,99.90
2023-04-23T09:49:48.505Z,99.90
2023-04-23T09:52:45.527Z,99.90
2023-04-23T09:55:45.395Z,99.90
2023-04-23T09:58:45.362Z,99.90
2023-04-23T10:01:46.130Z,99.90
2023-04-23T10:04:43.243Z,99.90
2023-04-23T10:07:40.423Z,99.90
2023-04-23T10:10:51.004Z,99.90
2023-04-23T10:13:55.106Z,99.90
2023-04-23T10:16:57.232Z,99.90
2023-04-23T10:19:55.673Z,99.90
2023-04-23T10:22:56.350Z,99.90
2023-04-23T10:25:56.185Z,99.90
2023-04-23T10:28:55.118Z,99.90
2023-04-23T10:31:54.623Z,99.90
2023-04-23T10:34:52.124Z,99.90
2023-04-23T10:37:49.325Z,99.90
2023-04-23T10:40:49.100Z,99.90
2023-04-23T10:43:46.079Z,99.90
2023-04-23T10:46:58.499Z,97.90
2023-04-23T10:49:55.424Z,99.90
2023-04-23T10:52:54.464Z,97.40
2023-04-23T10:56:04.273Z,95.90
2023-04-23T10:59:01.591Z,93.30
2023-04-23T11:02:09.292Z,99.90
2023-04-23T11:05:09.689Z,94.90
2023-04-23T11:08:18.974Z,99.90
2023-04-23T11:11:16.796Z,99.90
2023-04-23T11:14:16.795Z,99.90
2023-04-23T11:17:16.134Z,99.90
2023-04-23T11:20:23.897Z,99.90
2023-04-23T11:23:33.009Z,99.90
2023-04-23T11:26:31.489Z,99.90
2023-04-23T11:29:29.051Z,99.70
2023-04-23T11:32:28.394Z,98.50
2023-04-23T11:35:30.399Z,97.40
2023-04-23T11:38:33.653Z,95.80
2023-04-23T11:41:30.550Z,99.90
2023-04-23T11:44:28.186Z,99.30
2023-04-23T11:47:26.505Z,99.90
2023-04-23T11:50:30.553Z,99.90
2023-04-23T11:53:27.472Z,99.90
2023-04-23T11:56:25.134Z,94.10
2023-04-23T11:59:22.949Z,99.90
2023-04-23T12:02:19.918Z,81.10
2023-04-23T12:05:21.499Z,87.40
2023-04-23T12:08:20.391Z,90.80
2023-04-23T12:11:17.197Z,96.40
2023-04-23T12:14:15.313Z,93.40
2023-04-23T12:17:12.426Z,93.10
2023-04-23T12:20:21.230Z,94.40
2023-04-23T12:23:18.091Z,95.70
2023-04-23T12:26:16.736Z,95.10
2023-04-23T12:29:14.254Z,84.60
2023-04-23T12:32:12.229Z,74.60
2023-04-23T12:35:11.110Z,87.80
2023-04-23T12:38:08.353Z,75.30
2023-04-23T12:41:05.543Z,96.00
2023-04-23T12:44:02.723Z,94.00
2023-04-23T12:47:04.995Z,87.00
2023-04-23T12:50:03.944Z,94.60
2023-04-23T12:53:00.867Z,99.90
2023-04-23T12:55:57.698Z,94.80
2023-04-23T12:58:54.572Z,83.80
2023-04-23T13:01:52.026Z,93.40
2023-04-23T13:04:48.912Z,83.30
2023-04-23T13:07:45.723Z,69.10
2023-04-23T13:10:42.573Z,74.50
2023-04-23T13:13:39.566Z,75.80
2023-04-23T13:16:36.712Z,92.70
2023-04-23T13:19:35.403Z,79.40
2023-04-23T13:22:33.067Z,72.30
2023-04-23T13:25:29.925Z,91.80
2023-04-23T13:28:26.956Z,97.60
2023-04-23T13:31:24.131Z,80.00
2023-04-23T13:34:21.330Z,99.90
2023-04-23T13:37:18.302Z,95.20
2023-04-23T13:40:15.360Z,62.90
2023-04-23T13:43:12.246Z,75.60
2023-04-23T13:46:09.230Z,91.60
2023-04-23T13:49:06.699Z,63.80
2023-04-23T13:52:06.819Z,59.80
2023-04-23T13:55:04.239Z,85.40
2023-04-23T13:58:01.147Z,72.40
2023-04-23T14:00:58.059Z,62.00
2023-04-23T14:03:54.939Z,89.30
2023-04-23T14:06:51.843Z,91.70
2023-04-23T14:09:52.613Z,80.40
2023-04-23T14:12:49.842Z,81.60
2023-04-23T14:15:46.689Z,70.30
2023-04-23T14:18:43.503Z,82.10
2023-04-23T14:21:41.619Z,76.20
2023-04-23T14:24:49.578Z,88.40
2023-04-23T14:27:51.362Z,91.30
2023-04-23T14:30:48.200Z,70.60
2023-04-23T14:33:45.080Z,71.80
2023-04-23T14:36:41.933Z,80.80
2023-04-23T14:39:39.355Z,94.20
2023-04-23T14:42:36.330Z,85.60
2023-04-23T14:45:33.483Z,83.90
2023-04-23T14:48:30.297Z,86.40
2023-04-23T14:51:29.803Z,78.90
2023-04-23T14:54:26.662Z,76.60
2023-04-23T14:57:23.498Z,70.10
2023-04-23T15:00:22.297Z,63.20
2023-04-23T15:03:19.249Z,71.30
2023-04-23T15:06:16.353Z,70.50
2023-04-23T15:09:13.186Z,81.00
2023-04-23T15:12:39.966Z,71.10
2023-04-23T15:15:49.208Z,91.40
2023-04-23T15:18:46.265Z,66.20
2023-04-23T15:21:43.305Z,65.20
2023-04-23T15:24:40.154Z,71.60
2023-04-23T15:27:37.167Z,80.60
2023-04-23T15:30:34.008Z,82.00
2023-04-23T15:33:30.994Z,84.60
2023-04-23T15:36:28.538Z,71.20
2023-04-23T15:39:26.310Z,75.00
2023-04-23T15:42:24.812Z,81.70
2023-04-23T15:45:21.941Z,70.00
2023-04-23T15:48:18.953Z,61.00
2023-04-23T15:51:16.317Z,59.30
2023-04-23T15:54:13.270Z,65.60
2023-04-23T15:57:10.224Z,81.60
2023-04-23T16:00:12.094Z,75.20
2023-04-23T16:03:09.555Z,61.50
2023-04-23T16:06:06.621Z,80.90
2023-04-23T16:09:06.706Z,66.10
2023-04-23T16:12:03.974Z,84.00
2023-04-23T16:15:00.870Z,85.50
2023-04-23T16:17:59.799Z,86.90
2023-04-23T16:20:57.023Z,65.80
2023-04-23T16:23:53.868Z,82.30
2023-04-23T16:26:51.037Z,80.90
2023-04-23T16:29:47.928Z,70.70
2023-04-23T16:32:44.843Z,92.50
2023-04-23T16:35:41.778Z,81.30
2023-04-23T16:38:39.644Z,77.90
2023-04-23T16:41:36.605Z,79.00
2023-04-23T16:44:33.724Z,80.10
2023-04-23T16:47:30.565Z,87.90
2023-04-23T16:50:28.117Z,82.50
2023-04-23T16:53:25.838Z,91.50
2023-04-23T16:56:23.049Z,89.60
2023-04-23T16:59:20.431Z,90.50
2023-04-23T17:02:17.593Z,91.60
2023-04-23T17:05:14.545Z,93.90
2023-04-23T17:08:11.366Z,91.80
2023-04-23T17:11:08.664Z,91.00
2023-04-23T17:14:05.843Z,95.40
2023-04-23T17:17:02.669Z,93.10
2023-04-23T17:19:59.562Z,90.80
2023-04-23T17:22:56.392Z,93.30
2023-04-23T17:25:53.305Z,93.50
2023-04-23T17:28:50.216Z,94.10
2023-04-23T17:31:47.095Z,94.80
2023-04-23T17:34:49.477Z,95.30
2023-04-23T17:37:51.121Z,97.50
2023-04-23T17:40:52.785Z,97.70
2023-04-23T17:43:50.265Z,95.10
2023-04-23T17:46:47.078Z,96.10
2023-04-23T17:49:44.058Z,99.10
2023-04-23T17:52:41.188Z,97.90
2023-04-23T17:55:38.210Z,98.10
2023-04-23T17:58:36.165Z,99.90
2023-04-23T18:01:35.036Z,99.90
2023-04-23T18:04:33.723Z,99.90
2023-04-23T18:07:30.600Z,99.90
2023-04-23T18:10:28.470Z,99.90
2023-04-23T18:13:25.364Z,99.90
2023-04-23T18:16:22.244Z,99.90
2023-04-23T18:19:19.095Z,99.90
2023-04-23T18:22:16.457Z,99.90
2023-04-23T18:25:13.571Z,99.90
2023-04-23T18:28:10.858Z,99.90
2023-04-23T18:31:07.947Z,99.90
2023-04-23T18:34:10.101Z,99.90
2023-04-23T18:37:30.791Z,99.90
2023-04-23T18:40:27.912Z,99.90
2023-04-23T18:43:25.351Z,99.90
2023-04-23T18:46:23.476Z,99.90
2023-04-23T18:49:29.586Z,99.90
2023-04-23T18:52:26.434Z,99.90
2023-04-23T18:55:23.353Z,99.90
2023-04-23T18:58:20.213Z,99.90
2023-04-23T19:01:17.183Z,99.90
2023-04-23T19:04:15.168Z,99.90
2023-04-23T19:07:12.223Z,99.90
2023-04-23T19:10:10.041Z,99.90
2023-04-23T19:13:06.877Z,99.90
2023-04-23T19:16:03.824Z,99.90
2023-04-23T19:19:00.741Z,99.90
2023-04-23T19:21:57.656Z,99.90
2023-04-23T19:24:54.483Z,99.90
2023-04-23T19:27:51.343Z,99.90
2023-04-23T19:30:48.206Z,99.90
2023-04-23T19:33:46.297Z,99.90
2023-04-23T19:36:43.099Z,99.90
2023-04-23T19:39:40.148Z,99.90
2023-04-23T19:42:37.215Z,99.90
2023-04-23T19:45:34.176Z,99.90
2023-04-23T19:48:31.131Z,99.90
2023-04-23T19:51:32.862Z,99.90
2023-04-23T19:54:29.796Z,99.90
2023-04-23T19:57:26.856Z,99.90
2023-04-23T20:00:25.435Z,99.90
2023-04-23T20:03:22.596Z,99.90
2023-04-23T20:06:19.807Z,99.90
2023-04-23T20:09:21.463Z,99.90
2023-04-23T20:12:19.838Z,99.90
2023-04-23T20:15:16.761Z,99.90
2023-04-23T20:18:13.939Z,99.90
2023-04-23T20:21:10.797Z,99.90
2023-04-23T20:24:09.560Z,99.90
2023-04-23T20:27:07.057Z,99.90
2023-04-23T20:30:06.001Z,99.90
2023-04-23T20:33:03.320Z,99.90
2023-04-23T20:36:01.584Z,99.90
2023-04-23T20:39:01.005Z,99.90
2023-04-23T20:42:00.809Z,99.90
2023-04-23T20:44:57.693Z,99.90
2023-04-23T20:47:57.304Z,99.90
2023-04-23T20:50:55.201Z,99.90
2023-04-23T20:53:52.191Z,99.90
2023-04-23T20:56:53.962Z,99.90
2023-04-23T20:59:50.913Z,99.90
2023-04-23T21:02:47.896Z,99.90
2023-04-23T21:05:44.906Z,99.90
2023-04-23T21:08:42.717Z,99.90
2023-04-23T21:11:41.807Z,99.90
2023-04-23T21:14:38.645Z,99.90
2023-04-23T21:17:35.506Z,99.90
2023-04-23T21:20:32.352Z,99.90
2023-04-23T21:23:29.245Z,99.90
2023-04-23T21:26:27.476Z,99.90
2023-04-23T21:29:25.907Z,99.90
2023-04-23T21:32:22.824Z,99.90
2023-04-23T21:35:19.665Z,99.90
2023-04-23T21:38:17.836Z,99.90
2023-04-23T21:41:14.637Z,99.90
2023-04-23T21:44:11.489Z,99.90
2023-04-23T21:47:08.391Z,99.90
2023-04-23T21:50:06.191Z,99.90
2023-04-23T21:53:04.067Z,99.90
2023-04-23T21:56:00.985Z,99.90
2023-04-23T21:58:57.843Z,99.90
2023-04-23T22:01:54.921Z,99.90
2023-04-23T22:04:51.831Z,99.90
2023-04-23T22:07:51.625Z,99.90
2023-04-23T22:10:49.710Z,99.90
2023-04-23T22:13:46.538Z,99.90
2023-04-23T22:16:43.459Z,99.90
2023-04-23T22:19:40.601Z,99.90
2023-04-23T22:22:40.060Z,99.90
2023-04-23T22:25:36.895Z,99.90
2023-04-23T22:28:33.760Z,99.90
2023-04-23T22:31:30.538Z,99.90
2023-04-23T22:34:27.349Z,99.90
2023-04-23T22:37:24.373Z,99.90
2023-04-23T22:40:21.572Z,99.90
2023-04-23T22:43:18.405Z,99.90
2023-04-23T22:46:15.453Z,99.90
2023-04-23T22:49:14.256Z,99.90
2023-04-23T22:52:14.357Z,99.90
2023-04-23T22:55:11.718Z,99.90
2023-04-23T22:58:08.702Z,99.90
2023-04-23T23:01:05.667Z,99.90
2023-04-23T23:04:02.771Z,99.90
2023-04-23T23:06:59.615Z,99.90
2023-04-23T23:09:56.512Z,99.90
2023-04-23T23:12:53.547Z,99.90
2023-04-23T23:15:50.373Z,99.90
2023-04-23T23:18:47.290Z,99.90
2023-04-23T23:21:44.188Z,99.90
2023-04-23T23:24:41.067Z,99.90
2023-04-23T23:27:37.897Z,99.90
2023-04-23T23:30:34.737Z,99.90
2023-04-23T23:33:31.656Z,99.90
2023-04-23T23:36:28.674Z,99.90
2023-04-23T23:39:25.552Z,99.90
2023-04-23T23:42:22.373Z,99.90
2023-04-23T23:45:19.181Z,99.90
2023-04-23T23:48:16.056Z,99.90
2023-04-23T23:51:13.456Z,99.90
2023-04-23T23:54:10.267Z,99.90
2023-04-23T23:57:07.124Z,99.90
